Time;durP1;ratioP1;P1;durP2;ratioP2;P2;SDS_P1;SDS_P2;PMS_P1;PMS_P2;Temp;Humidity;BMP_temperature;BMP_pressure;BME280_temperature;BME280_humidity;BME280_pressure;Samples;Min_cycle;Max_cycle;Signal;HPM_P1;HPM_P2
2023/12/15 00:01:18;;;;;;;5.18;2.97;;;8.10;99.90;;;;;;5136959;27;20076;-75
2023/12/15 00:03:44;;;;;;;7.13;3.83;;;8.10;99.90;;;;;;5136651;27;20015;-74
2023/12/15 00:06:09;;;;;;;10.35;3.60;;;8.00;99.90;;;;;;5136773;27;20031;-75
2023/12/15 00:08:35;;;;;;;5.07;3.30;;;8.00;99.90;;;;;;5118105;28;20026;-74
2023/12/15 00:11:01;;;;;;;7.15;3.03;;;8.00;99.90;;;;;;5136847;28;20023;-74
2023/12/15 00:13:26;;;;;;;6.03;3.78;;;8.00;99.90;;;;;;5136729;28;20391;-75
2023/12/15 00:15:53;;;;;;;6.30;3.45;;;8.00;99.90;;;;;;5136808;28;20034;-74
2023/12/15 00:18:19;;;;;;;7.88;3.40;;;8.00;99.90;;;;;;5136434;28;20020;-74
2023/12/15 00:20:45;;;;;;;12.13;4.03;;;8.00;99.90;;;;;;5116976;28;20027;-74
2023/12/15 00:23:11;;;;;;;7.03;3.22;;;8.00;99.90;;;;;;5135502;28;20019;-75
2023/12/15 00:25:36;;;;;;;8.70;3.60;;;8.00;99.90;;;;;;5136647;28;20031;-74
2023/12/15 00:28:02;;;;;;;9.10;3.45;;;8.00;99.90;;;;;;5136556;28;20079;-74
2023/12/15 00:30:28;;;;;;;6.28;3.60;;;8.10;99.90;;;;;;5118162;28;20118;-74
2023/12/15 00:32:54;;;;;;;5.30;3.10;;;8.00;99.90;;;;;;5136630;28;20033;-74
2023/12/15 00:35:19;;;;;;;8.27;3.78;;;8.10;99.90;;;;;;5136844;28;20474;-75
2023/12/15 00:37:45;;;;;;;6.03;3.42;;;8.10;99.90;;;;;;5136424;28;20023;-74
2023/12/15 00:40:11;;;;;;;7.35;4.20;;;8.10;99.90;;;;;;5136449;28;20413;-75
2023/12/15 00:42:37;;;;;;;9.02;3.97;;;8.10;99.90;;;;;;5136476;28;20458;-73
2023/12/15 00:45:02;;;;;;;7.75;3.45;;;8.10;99.90;;;;;;5136346;28;20027;-74
2023/12/15 00:47:28;;;;;;;6.22;3.17;;;8.10;99.90;;;;;;5117910;28;20023;-74
2023/12/15 00:49:54;;;;;;;10.75;4.75;;;8.10;99.90;;;;;;5136457;28;20027;-74
2023/12/15 00:52:19;;;;;;;4.70;3.20;;;8.10;99.90;;;;;;5136281;28;20522;-74
2023/12/15 00:54:45;;;;;;;8.70;3.67;;;8.10;99.90;;;;;;5117746;28;20054;-74
2023/12/15 00:57:11;;;;;;;6.30;3.20;;;8.10;99.90;;;;;;5139532;27;20023;-74
2023/12/15 00:59:37;;;;;;;7.47;3.58;;;8.10;99.90;;;;;;5121696;27;20402;-74
2023/12/15 01:02:04;;;;;;;9.80;3.85;;;8.10;99.90;;;;;;5140003;27;20031;-74
2023/12/15 01:04:31;;;;;;;7.65;3.55;;;8.10;99.90;;;;;;5121651;27;20037;-74
2023/12/15 01:06:57;;;;;;;8.00;4.28;;;8.10;99.90;;;;;;5121452;27;20024;-74
2023/12/15 01:09:23;;;;;;;9.68;3.95;;;8.10;99.90;;;;;;5140125;27;20094;-74
2023/12/15 01:11:48;;;;;;;6.15;4.22;;;8.10;99.90;;;;;;5139951;27;20088;-75
2023/12/15 01:14:15;;;;;;;9.57;4.05;;;8.10;99.90;;;;;;5139979;27;20167;-74
2023/12/15 01:16:46;;;;;;;9.27;3.67;;;8.10;99.90;;;;;;5121620;27;20117;-74
2023/12/15 01:19:12;;;;;;;8.60;3.63;;;8.10;99.90;;;;;;5121069;27;20023;-75
2023/12/15 01:21:37;;;;;;;6.95;3.80;;;8.10;99.90;;;;;;5121272;27;20084;-74
2023/12/15 01:24:03;;;;;;;7.82;3.67;;;8.10;99.90;;;;;;5121339;27;20027;-74
2023/12/15 01:26:29;;;;;;;12.38;3.97;;;8.20;99.90;;;;;;5121334;27;20043;-74
2023/12/15 01:28:55;;;;;;;7.25;4.28;;;8.20;99.90;;;;;;5139649;27;20027;-74
2023/12/15 01:31:20;;;;;;;3.55;3.20;;;8.20;99.90;;;;;;5139587;27;20027;-74
2023/12/15 01:33:46;;;;;;;6.10;3.83;;;8.30;99.90;;;;;;5139424;27;20019;-74
2023/12/15 01:36:12;;;;;;;5.80;3.08;;;8.20;99.90;;;;;;5139722;27;20031;-74
2023/12/15 01:38:38;;;;;;;10.55;4.72;;;8.30;99.90;;;;;;5139340;27;20860;-74
2023/12/15 01:41:04;;;;;;;6.75;4.13;;;8.30;99.90;;;;;;5139495;27;20030;-74
2023/12/15 01:43:29;;;;;;;6.82;3.60;;;8.30;99.90;;;;;;5139350;27;20512;-74
2023/12/15 01:45:55;;;;;;;5.43;3.53;;;8.30;99.90;;;;;;5139299;27;20363;-74
2023/12/15 01:48:22;;;;;;;4.90;3.47;;;8.20;99.90;;;;;;5139177;27;20031;-75
2023/12/15 01:50:48;;;;;;;7.45;3.75;;;8.20;99.90;;;;;;5139563;27;20029;-74
2023/12/15 01:53:14;;;;;;;5.53;3.92;;;8.20;99.90;;;;;;5120517;27;20045;-75
2023/12/15 01:55:39;;;;;;;6.72;3.70;;;8.20;99.90;;;;;;5139153;27;20031;-75
2023/12/15 01:58:08;;;;;;;9.77;3.90;;;8.10;99.90;;;;;;5139216;27;20051;-75
2023/12/15 02:00:34;;;;;;;7.22;3.40;;;8.10;99.90;;;;;;5139155;27;20376;-75
2023/12/15 02:03:00;;;;;;;12.02;4.80;;;8.10;99.90;;;;;;5138772;27;20046;-75
2023/12/15 02:05:25;;;;;;;6.32;3.53;;;8.00;99.90;;;;;;5138944;27;20091;-75
2023/12/15 02:07:51;;;;;;;12.07;4.38;;;8.00;99.90;;;;;;5119780;27;20033;-75
2023/12/15 02:10:17;;;;;;;6.55;3.50;;;8.00;99.90;;;;;;5138848;27;20051;-75
2023/12/15 02:12:42;;;;;;;9.60;3.60;;;8.00;99.90;;;;;;5138864;27;20054;-75
2023/12/15 02:15:10;;;;;;;8.68;3.65;;;8.00;99.90;;;;;;5120153;27;20059;-75
2023/12/15 02:17:36;;;;;;;9.00;3.72;;;8.00;99.90;;;;;;5120198;27;20027;-75
2023/12/15 02:20:01;;;;;;;11.05;3.80;;;7.90;99.90;;;;;;5113472;27;20034;-75
2023/12/15 02:22:27;;;;;;;8.43;3.78;;;7.90;99.90;;;;;;5120105;27;20508;-75
2023/12/15 02:24:53;;;;;;;7.28;3.90;;;7.90;99.90;;;;;;5138496;27;20027;-75
2023/12/15 02:27:18;;;;;;;7.60;3.25;;;7.90;99.90;;;;;;5138885;27;20019;-74
2023/12/15 02:29:44;;;;;;;7.57;3.30;;;7.90;99.90;;;;;;5119831;27;20015;-75
2023/12/15 02:32:09;;;;;;;10.70;3.80;;;7.90;99.90;;;;;;5138237;27;20402;-73
2023/12/15 02:34:36;;;;;;;5.43;3.90;;;7.90;99.90;;;;;;5119889;27;20454;-74
2023/12/15 02:37:01;;;;;;;12.13;4.47;;;8.00;99.90;;;;;;5138336;27;20095;-74
2023/12/15 02:39:27;;;;;;;20.52;4.25;;;8.00;99.90;;;;;;5138233;27;20098;-74
2023/12/15 02:41:53;;;;;;;6.45;3.90;;;8.00;99.90;;;;;;5138319;27;20114;-75
2023/12/15 02:44:18;;;;;;;11.80;3.88;;;8.00;99.90;;;;;;5116488;28;20023;-75
2023/12/15 02:46:44;;;;;;;7.22;3.90;;;8.00;99.90;;;;;;5131309;27;20476;-75
2023/12/15 02:49:10;;;;;;;8.05;3.85;;;8.00;99.90;;;;;;5137902;27;20019;-75
2023/12/15 02:51:35;;;;;;;6.32;3.70;;;8.00;99.90;;;;;;5119555;27;20024;-75
2023/12/15 02:54:02;;;;;;;9.20;3.63;;;7.90;99.90;;;;;;5137922;27;20070;-74
2023/12/15 02:56:27;;;;;;;6.60;3.97;;;7.90;99.90;;;;;;5119715;27;20027;-75
2023/12/15 02:58:54;;;;;;;7.30;4.30;;;7.90;99.90;;;;;;5119611;27;20104;-75
2023/12/15 03:01:20;;;;;;;5.22;4.10;;;7.90;99.90;;;;;;5119461;27;20046;-75
2023/12/15 03:03:46;;;;;;;9.27;3.88;;;7.80;99.90;;;;;;5119432;27;20034;-74
2023/12/15 03:06:11;;;;;;;7.05;3.53;;;7.80;99.90;;;;;;5119128;27;20023;-75
2023/12/15 03:08:37;;;;;;;5.60;3.90;;;7.80;99.90;;;;;;5137545;27;20081;-75
2023/12/15 03:11:03;;;;;;;5.85;3.67;;;7.80;99.90;;;;;;5137764;27;20023;-75
2023/12/15 03:13:29;;;;;;;5.55;3.38;;;7.80;99.90;;;;;;5119430;27;20034;-75
2023/12/15 03:16:04;;;;;;;7.18;3.70;;;7.80;99.90;;;;;;5137562;27;20099;-74
2023/12/15 03:18:30;;;;;;;9.20;3.60;;;7.90;99.90;;;;;;5123391;27;20096;-75
2023/12/15 03:20:56;;;;;;;8.80;4.03;;;7.80;99.90;;;;;;5137478;27;20487;-75
2023/12/15 03:23:21;;;;;;;7.95;4.60;;;7.90;99.90;;;;;;5119191;27;20023;-75
2023/12/15 03:25:47;;;;;;;5.47;3.75;;;7.80;99.90;;;;;;5118784;27;20027;-75
2023/12/15 03:28:14;;;;;;;6.55;4.05;;;7.80;99.90;;;;;;5119029;27;20023;-75
2023/12/15 03:30:40;;;;;;;9.55;3.80;;;7.80;99.90;;;;;;5137211;27;20569;-74
2023/12/15 03:33:06;;;;;;;7.60;3.80;;;7.80;99.90;;;;;;5127853;27;20452;-75
2023/12/15 03:35:31;;;;;;;6.05;4.70;;;7.80;99.90;;;;;;5116043;27;20038;-75
2023/12/15 03:37:57;;;;;;;7.68;4.00;;;7.80;99.90;;;;;;5118168;27;20027;-74
2023/12/15 03:40:23;;;;;;;6.18;4.10;;;7.80;99.90;;;;;;5137105;27;20042;-75
2023/12/15 03:42:48;;;;;;;8.68;3.60;;;7.80;99.90;;;;;;5137473;27;20495;-75
2023/12/15 03:45:14;;;;;;;5.22;3.42;;;7.80;99.90;;;;;;5137031;27;20023;-75
2023/12/15 03:47:40;;;;;;;10.15;4.30;;;7.70;99.90;;;;;;5136882;27;20023;-75
2023/12/15 03:50:06;;;;;;;9.60;4.22;;;7.70;99.90;;;;;;5137050;27;20084;-74
2023/12/15 03:52:33;;;;;;;9.80;3.65;;;7.70;99.90;;;;;;5137215;27;20810;-75
2023/12/15 03:54:58;;;;;;;6.65;4.20;;;7.70;99.90;;;;;;5136841;27;20464;-74
2023/12/15 03:57:24;;;;;;;11.00;4.05;;;7.70;99.90;;;;;;5118526;28;20030;-75
2023/12/15 03:59:49;;;;;;;6.60;3.78;;;7.70;99.90;;;;;;5136906;27;20020;-74
2023/12/15 04:02:15;;;;;;;7.53;4.25;;;7.70;99.90;;;;;;5117902;28;20023;-74
2023/12/15 04:04:42;;;;;;;9.02;3.83;;;7.70;99.90;;;;;;5136711;27;20031;-75
2023/12/15 04:07:08;;;;;;;6.18;3.95;;;7.70;99.90;;;;;;5134691;27;20415;-74
2023/12/15 04:09:34;;;;;;;6.70;3.83;;;7.70;99.90;;;;;;5136635;28;20386;-75
2023/12/15 04:11:59;;;;;;;6.82;3.72;;;7.70;99.90;;;;;;5118653;28;20027;-74
2023/12/15 04:14:25;;;;;;;9.93;4.55;;;7.70;99.90;;;;;;5136698;28;20123;-74
2023/12/15 04:16:51;;;;;;;11.27;4.30;;;7.70;99.90;;;;;;5136666;28;20058;-75
2023/12/15 04:19:17;;;;;;;7.47;3.58;;;7.70;99.90;;;;;;5111611;28;20070;-75
2023/12/15 04:21:42;;;;;;;9.40;3.58;;;7.70;99.90;;;;;;5118228;28;20038;-74
2023/12/15 04:24:08;;;;;;;6.72;3.63;;;7.70;99.90;;;;;;5118110;28;20027;-74
2023/12/15 04:26:34;;;;;;;5.72;3.42;;;7.70;99.90;;;;;;5118262;28;20114;-74
2023/12/15 04:28:59;;;;;;;8.95;3.55;;;7.70;99.90;;;;;;5118062;27;20023;-75
2023/12/15 04:31:25;;;;;;;4.55;3.47;;;7.80;99.90;;;;;;5121922;27;20023;-74
2023/12/15 04:33:52;;;;;;;3.38;3.08;;;7.80;99.90;;;;;;5140590;27;20023;-74
2023/12/15 04:36:19;;;;;;;6.15;3.03;;;7.80;99.90;;;;;;5122099;27;20019;-74
2023/12/15 04:38:45;;;;;;;8.88;4.35;;;7.80;99.90;;;;;;5140705;27;20387;-74
2023/12/15 04:41:21;;;;;;;8.60;3.25;;;7.80;99.90;;;;;;5140366;27;20038;-74
2023/12/15 04:43:47;;;;;;;4.78;3.40;;;7.80;99.90;;;;;;5138779;27;20072;-74
2023/12/15 04:46:21;;;;;;;10.25;3.53;;;7.80;99.90;;;;;;5122168;27;20027;-74
2023/12/15 04:48:46;;;;;;;5.90;3.47;;;7.80;99.90;;;;;;5122028;27;20041;-74
2023/12/15 04:51:13;;;;;;;9.82;3.83;;;7.70;99.90;;;;;;5121972;27;20444;-74
2023/12/15 04:53:39;;;;;;;8.38;3.53;;;7.70;99.90;;;;;;5140197;27;20088;-75
2023/12/15 04:56:05;;;;;;;5.30;3.72;;;7.70;99.90;;;;;;5140393;27;20027;-75
2023/12/15 04:58:31;;;;;;;8.02;3.95;;;7.70;99.90;;;;;;5140336;27;20114;-76
2023/12/15 05:00:56;;;;;;;18.15;4.82;;;7.70;99.90;;;;;;5117871;27;20060;-75
2023/12/15 05:03:22;;;;;;;5.57;3.78;;;7.60;99.90;;;;;;5118204;27;20035;-75
2023/12/15 05:05:48;;;;;;;8.38;3.92;;;7.50;99.90;;;;;;5121244;27;20027;-75
2023/12/15 05:08:14;;;;;;;10.02;3.92;;;7.50;99.90;;;;;;5139853;27;20015;-75
2023/12/15 05:10:39;;;;;;;5.97;4.00;;;7.40;99.90;;;;;;5118153;28;20024;-75
2023/12/15 05:13:06;;;;;;;6.93;4.03;;;7.30;99.90;;;;;;5117272;27;20498;-75
2023/12/15 05:15:32;;;;;;;7.88;3.90;;;7.20;99.90;;;;;;5140017;27;20027;-75
2023/12/15 05:17:57;;;;;;;17.38;4.43;;;7.10;99.90;;;;;;5139681;27;20080;-75
2023/12/15 05:20:23;;;;;;;12.10;5.38;;;6.90;99.90;;;;;;5121425;27;20110;-75
2023/12/15 05:22:49;;;;;;;10.23;4.47;;;6.80;99.90;;;;;;5121292;27;20026;-75
2023/12/15 05:25:15;;;;;;;12.75;4.30;;;6.80;99.90;;;;;;5121566;27;20364;-75
2023/12/15 05:27:40;;;;;;;9.50;4.30;;;6.70;99.90;;;;;;5121263;27;20091;-75
2023/12/15 05:30:06;;;;;;;7.45;4.50;;;6.60;99.90;;;;;;5121174;27;20031;-75
2023/12/15 05:32:32;;;;;;;9.07;4.60;;;6.60;99.90;;;;;;5139649;27;20034;-75
2023/12/15 05:34:58;;;;;;;8.65;4.97;;;6.50;99.90;;;;;;5139649;27;20031;-75
2023/12/15 05:37:23;;;;;;;8.18;4.30;;;6.40;99.90;;;;;;5139319;27;20027;-75
2023/12/15 05:39:49;;;;;;;9.98;4.35;;;6.40;99.90;;;;;;5120998;27;20031;-75
2023/12/15 05:42:16;;;;;;;7.63;4.45;;;6.30;99.90;;;;;;5138496;27;20034;-76
2023/12/15 05:44:41;;;;;;;9.73;4.78;;;6.30;99.90;;;;;;5139414;27;20093;-76
2023/12/15 05:47:07;;;;;;;14.98;5.20;;;6.30;99.90;;;;;;5139028;27;20034;-75
2023/12/15 05:49:43;;;;;;;7.75;5.45;;;6.20;99.90;;;;;;5139439;27;20038;-75
2023/12/15 05:52:14;;;;;;;14.50;6.15;;;6.20;99.90;;;;;;5115847;27;20068;-75
2023/12/15 05:54:40;;;;;;;10.98;5.60;;;6.20;99.90;;;;;;5120263;27;20047;-75
2023/12/15 05:57:06;;;;;;;7.13;4.95;;;6.20;99.90;;;;;;5139061;27;20151;-75
2023/12/15 05:59:32;;;;;;;6.68;4.82;;;6.20;99.90;;;;;;5139267;27;20091;-75
2023/12/15 06:01:58;;;;;;;8.48;4.95;;;6.20;99.90;;;;;;5120285;27;20110;-75
2023/12/15 06:04:24;;;;;;;7.93;4.78;;;6.20;99.90;;;;;;5120662;27;20047;-75
2023/12/15 06:06:50;;;;;;;11.85;4.93;;;6.30;99.90;;;;;;5120424;27;20498;-75
2023/12/15 06:09:16;;;;;;;8.30;4.68;;;6.30;99.90;;;;;;5138983;27;20019;-75
2023/12/15 06:11:42;;;;;;;7.53;4.80;;;6.40;99.90;;;;;;5120719;27;20027;-75
2023/12/15 06:14:09;;;;;;;7.70;5.05;;;6.40;99.90;;;;;;5137535;27;20117;-75
2023/12/15 06:16:35;;;;;;;5.95;4.00;;;6.50;99.90;;;;;;5120027;27;20076;-75
2023/12/15 06:19:01;;;;;;;12.70;4.50;;;6.60;99.90;;;;;;5120155;27;20023;-76
2023/12/15 06:21:28;;;;;;;5.60;4.28;;;6.60;99.90;;;;;;5138545;27;20095;-76
2023/12/15 06:23:54;;;;;;;6.10;4.35;;;6.70;99.90;;;;;;5138663;27;20038;-75
2023/12/15 06:26:24;;;;;;;6.65;4.78;;;6.70;99.90;;;;;;5120023;27;20452;-75
2023/12/15 06:28:50;;;;;;;4.40;4.00;;;6.80;99.90;;;;;;5138561;27;20031;-75
2023/12/15 06:31:16;;;;;;;6.47;4.00;;;6.90;99.90;;;;;;5138258;27;20095;-75
2023/12/15 06:33:42;;;;;;;7.85;4.30;;;6.90;99.90;;;;;;5116358;28;20024;-75
2023/12/15 06:36:09;;;;;;;9.93;5.38;;;6.90;99.90;;;;;;5119899;27;20031;-75
2023/12/15 06:38:45;;;;;;;9.63;5.30;;;7.00;99.90;;;;;;5119971;27;20022;-76
2023/12/15 06:41:14;;;;;;;8.68;5.00;;;7.00;99.90;;;;;;5119871;27;20038;-75
2023/12/15 06:43:44;;;;;;;7.78;4.60;;;7.10;99.90;;;;;;5138431;27;20023;-75
2023/12/15 06:46:11;;;;;;;9.48;4.35;;;7.10;99.90;;;;;;5138185;27;20050;-75
2023/12/15 06:48:37;;;;;;;7.13;4.75;;;7.10;99.90;;;;;;5137906;27;20016;-75
2023/12/15 06:51:04;;;;;;;7.40;4.78;;;7.10;99.90;;;;;;5138186;27;20045;-75
2023/12/15 06:53:30;;;;;;;7.25;5.00;;;7.10;99.90;;;;;;5137745;27;20067;-75
2023/12/15 06:55:55;;;;;;;7.82;4.80;;;7.20;99.90;;;;;;5138041;27;20023;-75
2023/12/15 06:58:21;;;;;;;9.82;4.35;;;7.20;99.90;;;;;;5119474;27;20053;-75
2023/12/15 07:00:47;;;;;;;13.90;5.63;;;7.20;99.90;;;;;;5137961;27;20084;-76
2023/12/15 07:03:12;;;;;;;12.70;7.32;;;7.20;99.90;;;;;;5119138;27;20027;-75
2023/12/15 07:05:38;;;;;;;8.85;3.80;;;7.20;99.90;;;;;;5119595;27;20038;-75
2023/12/15 07:08:04;;;;;;;6.82;4.43;;;7.20;99.90;;;;;;5119139;27;20486;-76
2023/12/15 07:10:30;;;;;;;6.35;4.05;;;7.30;99.90;;;;;;5137797;27;20023;-75
2023/12/15 07:12:56;;;;;;;7.32;3.90;;;7.30;99.90;;;;;;5119385;27;20008;-75
2023/12/15 07:15:22;;;;;;;6.15;4.03;;;7.30;99.90;;;;;;5137833;27;20019;-75
2023/12/15 07:17:48;;;;;;;14.60;4.57;;;7.40;99.90;;;;;;5137580;27;20019;-75
2023/12/15 07:20:13;;;;;;;8.48;4.05;;;7.40;99.90;;;;;;5131092;27;20031;-75
2023/12/15 07:22:39;;;;;;;9.55;4.75;;;7.40;99.90;;;;;;5118913;27;20063;-75
2023/12/15 07:25:05;;;;;;;12.68;4.32;;;7.40;99.90;;;;;;5137402;27;20031;-75
2023/12/15 07:27:31;;;;;;;7.53;4.25;;;7.50;99.90;;;;;;5137705;27;20019;-75
2023/12/15 07:29:56;;;;;;;6.70;3.92;;;7.50;99.90;;;;;;5137261;27;20030;-75
2023/12/15 07:32:22;;;;;;;9.07;4.07;;;7.50;99.90;;;;;;5118473;27;20057;-75
2023/12/15 07:34:48;;;;;;;12.65;4.53;;;7.50;99.90;;;;;;5118861;27;20034;-75
2023/12/15 07:37:13;;;;;;;8.45;5.15;;;7.60;99.90;;;;;;5118583;27;20514;-75
2023/12/15 07:39:39;;;;;;;12.32;6.07;;;7.60;99.90;;;;;;5137254;27;20117;-75
2023/12/15 07:42:05;;;;;;;16.27;7.97;;;7.60;99.90;;;;;;5137196;27;20035;-75
2023/12/15 07:44:30;;;;;;;14.18;6.97;;;7.70;99.90;;;;;;5137430;27;20027;-75
2023/12/15 07:46:56;;;;;;;12.68;7.40;;;7.60;99.90;;;;;;5118360;27;20023;-75
2023/12/15 07:49:24;;;;;;;12.52;7.55;;;7.70;99.90;;;;;;5118646;27;20101;-75
2023/12/15 07:51:50;;;;;;;13.07;7.85;;;7.60;99.90;;;;;;5118614;27;20030;-75
2023/12/15 07:54:16;;;;;;;12.07;7.85;;;7.70;99.90;;;;;;5118482;27;20047;-76
2023/12/15 07:56:42;;;;;;;10.23;7.35;;;7.70;99.90;;;;;;5135586;27;20015;-76
2023/12/15 07:59:08;;;;;;;9.50;6.32;;;7.80;99.90;;;;;;5137079;27;20022;-76
2023/12/15 08:01:34;;;;;;;22.23;6.50;;;7.80;99.90;;;;;;5136662;27;20011;-76
2023/12/15 08:04:00;;;;;;;11.38;7.07;;;7.80;99.90;;;;;;5136697;27;20020;-75
2023/12/15 08:06:26;;;;;;;10.30;7.10;;;7.80;99.90;;;;;;5117972;27;20030;-76
2023/12/15 08:08:52;;;;;;;14.90;7.78;;;7.80;99.90;;;;;;5118542;28;20024;-76
2023/12/15 08:11:18;;;;;;;13.32;7.15;;;7.80;99.90;;;;;;5116809;28;20111;-74
2023/12/15 08:13:44;;;;;;;11.75;7.70;;;7.80;99.90;;;;;;5118390;28;20026;-76
2023/12/15 08:16:10;;;;;;;11.00;7.45;;;7.80;99.90;;;;;;5118075;28;20026;-75
2023/12/15 08:18:36;;;;;;;17.75;7.25;;;7.80;99.90;;;;;;5135114;28;20031;-76
2023/12/15 08:21:02;;;;;;;15.43;7.32;;;7.90;99.90;;;;;;5131821;28;20031;-75
2023/12/15 08:23:28;;;;;;;14.68;7.80;;;7.90;99.90;;;;;;5136711;28;20395;-76
2023/12/15 08:25:54;;;;;;;12.45;7.78;;;7.90;99.90;;;;;;5136534;28;20080;-76
2023/12/15 08:28:20;;;;;;;16.88;8.50;;;8.00;99.90;;;;;;5136682;28;20072;-76
2023/12/15 08:30:50;;;;;;;9.88;7.45;;;8.00;99.90;;;;;;5117923;28;20031;-75
2023/12/15 08:33:16;;;;;;;11.82;7.45;;;8.00;99.90;;;;;;5118112;28;20023;-76
2023/12/15 08:35:42;;;;;;;11.10;8.00;;;8.10;99.90;;;;;;5136603;28;20051;-75
2023/12/15 08:38:08;;;;;;;17.80;8.50;;;8.10;99.90;;;;;;5136486;28;20076;-76
2023/12/15 08:40:33;;;;;;;12.95;8.98;;;8.20;99.90;;;;;;5136712;28;20031;-75
2023/12/15 08:42:59;;;;;;;11.80;7.95;;;8.30;99.90;;;;;;5136522;28;20027;-75
2023/12/15 08:45:25;;;;;;;15.05;9.20;;;8.30;99.90;;;;;;5136404;28;20034;-75
2023/12/15 08:47:52;;;;;;;12.30;8.70;;;8.40;99.90;;;;;;5117828;28;20019;-76
2023/12/15 08:50:18;;;;;;;13.45;8.65;;;8.50;99.90;;;;;;5136432;28;20047;-76
2023/12/15 08:52:44;;;;;;;14.57;10.25;;;8.50;99.90;;;;;;5117867;28;20099;-75
2023/12/15 08:55:10;;;;;;;16.33;10.30;;;8.60;99.90;;;;;;5136219;28;20043;-76
2023/12/15 08:57:36;;;;;;;15.80;9.25;;;8.60;99.90;;;;;;5136451;28;20712;-75
2023/12/15 09:00:06;;;;;;;14.18;9.45;;;8.50;99.90;;;;;;5117811;28;20027;-76
2023/12/15 09:02:33;;;;;;;14.57;10.63;;;8.50;99.90;;;;;;5117789;28;20066;-75
2023/12/15 09:05:00;;;;;;;15.02;8.95;;;8.60;99.90;;;;;;5117636;28;20035;-75
2023/12/15 09:07:26;;;;;;;13.77;8.50;;;8.60;99.90;;;;;;5117690;28;20049;-75
2023/12/15 09:09:52;;;;;;;11.93;8.30;;;8.70;99.90;;;;;;5117598;28;20104;-76
2023/12/15 09:12:17;;;;;;;16.60;7.75;;;8.70;99.90;;;;;;5118062;28;20114;-76
2023/12/15 09:14:43;;;;;;;13.60;8.07;;;8.70;99.90;;;;;;5117616;28;20035;-75
2023/12/15 09:17:13;;;;;;;14.90;7.53;;;8.70;99.90;;;;;;5118941;27;20033;-76
2023/12/15 09:19:40;;;;;;;13.00;7.05;;;8.80;99.90;;;;;;5133529;27;20031;-75
2023/12/15 09:22:05;;;;;;;11.90;7.00;;;8.80;99.90;;;;;;5139791;27;20102;-75
2023/12/15 09:24:33;;;;;;;11.30;7.70;;;8.80;99.90;;;;;;5139760;27;20174;-75
2023/12/15 09:26:59;;;;;;;13.15;7.32;;;8.80;99.90;;;;;;5121249;27;20019;-76
2023/12/15 09:29:25;;;;;;;20.08;10.93;;;8.80;99.90;;;;;;5121043;27;20044;-75
2023/12/15 09:31:51;;;;;;;22.63;13.15;;;8.90;99.90;;;;;;5139284;27;20478;-76
2023/12/15 09:34:17;;;;;;;18.58;12.57;;;8.80;99.90;;;;;;5139587;27;20038;-76
2023/12/15 09:36:43;;;;;;;16.15;11.98;;;8.80;99.90;;;;;;5139503;27;20026;-75
2023/12/15 09:39:09;;;;;;;15.07;10.82;;;8.80;99.90;;;;;;5139408;27;20027;-76
2023/12/15 09:41:35;;;;;;;20.35;10.10;;;8.90;99.90;;;;;;5121112;27;20023;-75
2023/12/15 09:44:01;;;;;;;19.55;10.95;;;9.00;99.90;;;;;;5139541;27;20023;-76
2023/12/15 09:46:27;;;;;;;15.50;8.93;;;9.10;99.90;;;;;;5139155;27;20037;-75
2023/12/15 09:48:53;;;;;;;15.10;9.70;;;9.20;99.90;;;;;;5139360;27;20110;-75
2023/12/15 09:51:24;;;;;;;18.58;10.07;;;9.30;99.90;;;;;;5139226;27;20023;-76
2023/12/15 09:53:50;;;;;;;15.07;9.50;;;9.30;99.90;;;;;;5139175;27;20054;-76
2023/12/15 09:56:16;;;;;;;14.13;10.10;;;9.40;99.90;;;;;;5139256;27;20046;-76
2023/12/15 09:58:42;;;;;;;10.35;8.43;;;9.50;99.90;;;;;;5139147;27;20403;-76
2023/12/15 10:01:12;;;;;;;18.95;10.00;;;9.50;99.90;;;;;;5139282;27;20031;-76
2023/12/15 10:03:38;;;;;;;15.88;6.80;;;9.50;99.90;;;;;;5138812;27;20034;-75
2023/12/15 10:06:05;;;;;;;9.73;5.88;;;9.50;99.90;;;;;;5120595;27;20091;-75
2023/12/15 10:08:44;;;;;;;10.25;5.85;;;9.60;99.90;;;;;;5138900;27;20022;-75
2023/12/15 10:11:11;;;;;;;12.05;4.82;;;9.60;99.90;;;;;;5120523;27;20027;-75
2023/12/15 10:13:40;;;;;;;6.75;4.35;;;9.60;99.90;;;;;;5139018;27;20531;-76
2023/12/15 10:16:06;;;;;;;14.13;6.20;;;9.60;99.90;;;;;;5138784;27;20062;-74
2023/12/15 10:18:31;;;;;;;7.35;3.90;;;9.70;99.90;;;;;;5138011;27;20061;-74
2023/12/15 10:20:57;;;;;;;5.95;4.00;;;9.70;99.90;;;;;;5114310;27;20031;-75
2023/12/15 10:23:30;;;;;;;14.85;6.72;;;9.80;99.90;;;;;;5138793;27;20031;-75
2023/12/15 10:25:58;;;;;;;9.00;4.18;;;9.80;99.90;;;;;;5120194;27;20520;-74
2023/12/15 10:28:24;;;;;;;6.10;3.92;;;9.80;99.90;;;;;;5119993;27;20122;-75
2023/12/15 10:30:51;;;;;;;6.85;3.85;;;9.90;99.90;;;;;;5138556;27;20054;-75
2023/12/15 10:33:18;;;;;;;6.30;4.13;;;10.00;99.90;;;;;;5120118;27;20019;-75
2023/12/15 10:35:50;;;;;;;7.65;4.05;;;10.00;99.90;;;;;;5138582;27;20027;-74
2023/12/15 10:38:16;;;;;;;10.13;3.83;;;10.00;99.90;;;;;;5138796;27;20030;-74
2023/12/15 10:40:42;;;;;;;9.13;4.55;;;10.20;99.90;;;;;;5138536;27;20023;-75
2023/12/15 10:43:10;;;;;;;8.95;4.00;;;10.30;99.90;;;;;;5116728;28;20020;-73
2023/12/15 10:45:36;;;;;;;5.18;3.13;;;10.30;99.90;;;;;;5135889;27;20035;-75
2023/12/15 10:48:03;;;;;;;6.25;3.53;;;10.40;99.90;;;;;;5138441;27;20051;-75
2023/12/15 10:50:30;;;;;;;6.20;3.13;;;10.50;99.90;;;;;;5138541;27;20015;-75
2023/12/15 10:52:57;;;;;;;12.18;4.18;;;10.50;99.90;;;;;;5119950;27;20015;-74
2023/12/15 10:55:28;;;;;;;10.15;4.15;;;10.60;99.90;;;;;;5138470;27;20445;-75
2023/12/15 10:57:54;;;;;;;9.38;4.18;;;10.60;99.90;;;;;;5138445;27;20054;-73
2023/12/15 11:00:20;;;;;;;7.68;4.40;;;10.60;99.90;;;;;;5120022;27;20027;-75
2023/12/15 11:02:48;;;;;;;5.55;4.03;;;10.60;99.90;;;;;;5119631;27;20031;-74
2023/12/15 11:05:15;;;;;;;8.43;4.13;;;10.70;99.90;;;;;;5138024;27;20096;-74
2023/12/15 11:07:41;;;;;;;8.30;4.18;;;10.70;99.90;;;;;;5138012;27;20016;-75
2023/12/15 11:10:09;;;;;;;8.10;4.20;;;10.70;99.90;;;;;;5137941;27;20440;-74
2023/12/15 11:12:41;;;;;;;11.25;4.63;;;10.80;99.90;;;;;;5119421;27;20026;-75
2023/12/15 11:15:07;;;;;;;8.70;3.95;;;10.80;99.90;;;;;;5119104;27;20026;-74
2023/12/15 11:17:37;;;;;;;7.55;3.72;;;10.80;99.90;;;;;;5137736;27;20107;-74
2023/12/15 11:20:20;;;;;;;7.70;4.07;;;10.80;99.90;;;;;;5130878;27;20107;-73
2023/12/15 11:22:53;;;;;;;6.68;4.00;;;10.80;99.90;;;;;;5137601;27;20042;-74
2023/12/15 11:25:45;;;;;;;7.97;3.55;;;10.80;99.90;;;;;;5119236;27;20030;-73
2023/12/15 11:28:16;;;;;;;7.57;3.95;;;10.90;99.90;;;;;;5119390;27;20046;-74
2023/12/15 11:30:48;;;;;;;6.28;3.15;;;11.10;99.90;;;;;;5137388;27;20044;-74
2023/12/15 11:33:32;;;;;;;7.10;3.88;;;11.20;99.90;;;;;;5137601;27;20027;-74
2023/12/15 11:36:01;;;;;;;5.20;3.45;;;11.30;99.90;;;;;;5118953;27;20034;-74
2023/12/15 11:38:27;;;;;;;5.25;2.83;;;11.20;99.90;;;;;;5118895;27;20034;-74
2023/12/15 11:40:53;;;;;;;7.90;3.30;;;11.10;99.90;;;;;;5118140;27;20031;-76
2023/12/15 11:43:19;;;;;;;3.45;3.03;;;11.00;99.90;;;;;;5136019;27;20023;-75
2023/12/15 11:45:46;;;;;;;5.40;3.08;;;10.80;99.90;;;;;;5137393;27;20024;-74
2023/12/15 11:48:12;;;;;;;7.97;3.78;;;10.70;99.90;;;;;;5136999;27;20031;-73
2023/12/15 11:50:43;;;;;;;6.30;3.45;;;10.70;99.90;;;;;;5137079;27;20048;-74
2023/12/15 11:53:09;;;;;;;;;;;10.70;99.90;;;;;;5137251;27;20035;-74
2023/12/15 11:55:35;;;;;;;9.50;3.45;;;10.70;99.90;;;;;;5118484;27;19904;-74
2023/12/15 11:58:02;;;;;;;10.18;3.53;;;10.60;99.90;;;;;;5137063;27;20029;-75
2023/12/15 12:00:30;;;;;;;4.72;3.55;;;10.60;99.90;;;;;;5136994;27;20372;-74
2023/12/15 12:02:56;;;;;;;6.70;4.03;;;10.60;99.90;;;;;;5118525;28;20027;-74
2023/12/15 12:05:22;;;;;;;4.88;3.83;;;10.50;99.90;;;;;;5136755;27;20031;-74
2023/12/15 12:07:48;;;;;;;7.32;4.07;;;10.40;99.90;;;;;;5136827;27;20020;-75
2023/12/15 12:10:15;;;;;;;9.85;4.15;;;10.40;99.90;;;;;;5136838;27;20024;-74
2023/12/15 12:12:41;;;;;;;7.55;4.13;;;10.40;99.90;;;;;;5136832;28;20015;-75
2023/12/15 12:15:09;;;;;;;7.60;5.07;;;10.50;99.90;;;;;;5136668;28;20023;-76
2023/12/15 12:17:39;;;;;;;7.72;4.57;;;10.40;99.90;;;;;;5118138;28;20433;-77
2023/12/15 12:20:10;;;;;;;5.60;3.92;;;10.40;99.90;;;;;;5130066;28;20023;-76
2023/12/15 12:22:40;;;;;;;6.68;4.13;;;10.40;99.90;;;;;;5118116;28;20030;-76
2023/12/15 12:25:06;;;;;;;5.63;4.30;;;10.40;99.90;;;;;;5136672;28;20023;-77
2023/12/15 12:27:35;;;;;;;7.53;3.70;;;10.40;99.90;;;;;;5136628;28;20023;-78
2023/12/15 12:30:02;;;;;;;8.18;5.75;;;10.50;99.90;;;;;;5136681;28;20016;-76
2023/12/15 12:32:28;;;;;;;7.15;4.28;;;10.50;99.90;;;;;;5119281;28;20085;-79
2023/12/15 12:34:54;;;;;;;6.43;3.50;;;10.50;99.90;;;;;;5136690;28;20031;-77
2023/12/15 12:37:20;;;;;;;3.35;3.00;;;10.40;99.90;;;;;;5136356;28;20019;-76
2023/12/15 12:39:45;;;;;;;4.25;2.88;;;10.40;99.90;;;;;;5136576;28;20106;-77
2023/12/15 12:42:11;;;;;;;4.18;2.90;;;10.40;99.90;;;;;;5117923;28;20125;-77
2023/12/15 12:44:39;;;;;;;2.95;2.60;;;10.40;99.90;;;;;;5136406;28;20023;-75
2023/12/15 12:47:04;;;;;;;6.55;2.90;;;10.40;99.90;;;;;;5117961;28;20360;-74
2023/12/15 12:49:30;;;;;;;4.28;2.85;;;10.40;99.90;;;;;;5136641;28;20033;-76